createdAt,value
2022-07-28T00:02:44.419Z,88.10
2022-07-28T00:07:43.519Z,88.40
2022-07-28T00:12:44.639Z,88.00
2022-07-28T00:17:47.742Z,88.26
2022-07-28T00:22:47.879Z,88.50
2022-07-28T00:27:48.024Z,89.95
2022-07-28T00:32:54.245Z,90.77
2022-07-28T00:37:47.339Z,89.95
2022-07-28T00:42:49.404Z,90.16
2022-07-28T00:47:48.492Z,90.86
2022-07-28T00:52:53.731Z,91.71
2022-07-28T00:57:52.146Z,92.32
2022-07-28T01:02:51.360Z,92.12
2022-07-28T01:07:53.476Z,93.27
2022-07-28T01:12:54.648Z,93.48
2022-07-28T01:17:54.051Z,92.06
2022-07-28T01:22:55.179Z,93.01
2022-07-28T01:27:57.315Z,93.32
2022-07-28T01:32:56.445Z,93.72
2022-07-28T01:37:58.566Z,93.96
2022-07-28T01:42:58.712Z,95.18
2022-07-28T01:47:58.850Z,94.12
2022-07-28T01:52:58.995Z,94.98
2022-07-28T01:57:59.161Z,94.57
2022-07-28T02:02:58.309Z,95.32
2022-07-28T02:08:03.433Z,95.22
2022-07-28T02:13:01.576Z,95.73
2022-07-28T02:18:09.690Z,96.18
2022-07-28T02:23:04.821Z,96.54
2022-07-28T02:28:01.966Z,96.23
2022-07-28T02:33:07.086Z,96.78
2022-07-28T02:38:07.643Z,96.69
2022-07-28T02:43:04.756Z,96.38
2022-07-28T02:48:06.852Z,97.39
2022-07-28T02:53:15.193Z,96.98
2022-07-28T02:58:05.897Z,97.44
2022-07-28T03:03:06.206Z,97.94
2022-07-28T03:08:07.492Z,96.63
2022-07-28T03:13:08.626Z,96.93
2022-07-28T03:18:14.728Z,97.44
2022-07-28T03:23:10.841Z,97.54
2022-07-28T03:28:09.951Z,97.58
2022-07-28T03:33:11.045Z,98.74
2022-07-28T03:38:13.191Z,98.65
2022-07-28T03:43:12.407Z,98.39
2022-07-28T03:48:13.634Z,97.79
2022-07-28T03:53:17.805Z,97.49
2022-07-28T03:58:16.940Z,97.18
2022-07-28T04:03:35.844Z,97.38
2022-07-28T04:08:18.041Z,97.08
2022-07-28T04:13:21.155Z,97.94
2022-07-28T04:18:23.533Z,97.08
2022-07-28T04:23:19.674Z,97.38
2022-07-28T04:28:18.805Z,96.22
2022-07-28T04:33:19.967Z,95.98
2022-07-28T04:38:24.064Z,96.73
2022-07-28T04:43:24.159Z,96.08
2022-07-28T04:48:21.271Z,94.92
2022-07-28T04:53:28.385Z,95.32
2022-07-28T04:58:24.498Z,94.12
2022-07-28T05:03:23.643Z,93.57
2022-07-28T05:08:28.809Z,92.62
2022-07-28T05:13:28.872Z,92.52
2022-07-28T05:18:28.943Z,89.86
2022-07-28T05:23:25.085Z,90.11
2022-07-28T05:28:27.266Z,89.43
2022-07-28T05:33:53.582Z,86.61
2022-07-28T05:38:26.736Z,86.26
2022-07-28T05:43:27.865Z,85.31
2022-07-28T05:48:28.038Z,85.52
2022-07-28T05:53:30.242Z,85.98
2022-07-28T05:58:30.387Z,84.83
2022-07-28T06:03:31.053Z,84.13
2022-07-28T06:08:30.198Z,84.39
2022-07-28T06:13:37.370Z,83.55
2022-07-28T06:18:46.513Z,82.75
2022-07-28T06:23:49.643Z,82.90
2022-07-28T06:28:35.760Z,79.96
2022-07-28T06:33:36.105Z,80.12
2022-07-28T06:38:38.242Z,79.22
2022-07-28T06:43:39.098Z,79.02
2022-07-28T06:48:36.473Z,78.45
2022-07-28T06:53:37.628Z,78.72
2022-07-28T06:58:39.310Z,78.98
2022-07-28T07:03:38.422Z,77.20
2022-07-28T07:08:40.561Z,77.60
2022-07-28T07:13:40.680Z,78.54
2022-07-28T07:18:40.805Z,78.14
2022-07-28T07:23:39.911Z,79.14
2022-07-28T07:28:41.039Z,76.83
2022-07-28T07:33:43.148Z,76.17
2022-07-28T07:38:43.252Z,76.67
2022-07-28T07:43:47.530Z,76.87
2022-07-28T07:48:42.892Z,75.93
2022-07-28T07:53:44.259Z,74.29
2022-07-28T07:58:46.372Z,73.66
2022-07-28T08:03:45.510Z,73.96
2022-07-28T08:08:48.459Z,72.39
2022-07-28T08:13:44.869Z,72.69
2022-07-28T08:18:45.977Z,73.32
2022-07-28T08:23:47.127Z,70.92
2022-07-28T08:28:50.246Z,71.26
2022-07-28T08:33:53.455Z,71.52
2022-07-28T08:38:49.398Z,71.98
2022-07-28T08:43:50.523Z,69.82
2022-07-28T08:48:51.821Z,69.29
2022-07-28T08:53:53.063Z,69.20
2022-07-28T08:58:54.233Z,71.86
2022-07-28T09:03:55.353Z,69.16
2022-07-28T09:08:57.526Z,69.86
2022-07-28T09:13:57.674Z,73.14
2022-07-28T09:18:57.820Z,72.41
2022-07-28T09:23:57.969Z,72.95
2022-07-28T09:28:57.156Z,71.09
2022-07-28T09:33:58.291Z,70.39
2022-07-28T09:38:59.429Z,70.75
2022-07-28T09:44:01.564Z,70.68
2022-07-28T09:49:01.201Z,70.42
2022-07-28T09:54:01.572Z,70.98
2022-07-28T09:59:00.696Z,70.75
2022-07-28T10:04:02.577Z,69.89
2022-07-28T10:09:03.112Z,68.13
2022-07-28T10:14:02.285Z,68.30
2022-07-28T10:19:06.471Z,66.08
2022-07-28T10:24:03.664Z,66.05
2022-07-28T10:29:04.788Z,67.11
2022-07-28T10:34:05.902Z,65.91
2022-07-28T10:39:07.119Z,65.75
2022-07-28T10:44:08.262Z,64.56
2022-07-28T10:49:09.868Z,63.73
2022-07-28T10:54:11.623Z,64.73
2022-07-28T10:59:09.528Z,62.87
2022-07-28T11:04:09.657Z,63.40
2022-07-28T11:09:10.823Z,63.31
2022-07-28T11:14:14.398Z,63.01
2022-07-28T11:19:40.211Z,63.21
2022-07-28T11:24:13.125Z,63.31
2022-07-28T11:29:13.101Z,64.56
2022-07-28T11:34:12.619Z,63.12
2022-07-28T11:39:11.829Z,65.03
2022-07-28T11:44:13.192Z,65.33
2022-07-28T11:49:15.307Z,63.95
2022-07-28T11:54:15.124Z,63.55
2022-07-28T11:59:14.461Z,64.50
2022-07-28T12:04:16.952Z,63.75
2022-07-28T12:09:19.278Z,62.16
2022-07-28T12:14:17.188Z,61.61
2022-07-28T12:19:17.736Z,62.87
2022-07-28T12:24:19.813Z,60.39
2022-07-28T12:29:20.367Z,61.02
2022-07-28T12:34:18.174Z,61.32
2022-07-28T12:39:19.345Z,62.04
2022-07-28T12:44:21.459Z,60.14
2022-07-28T12:49:21.667Z,60.33
2022-07-28T12:54:21.896Z,60.43
2022-07-28T12:59:23.073Z,59.74
2022-07-28T13:04:23.222Z,60.41
2022-07-28T13:09:23.425Z,58.65
2022-07-28T13:14:22.543Z,60.93
2022-07-28T13:19:24.681Z,58.50
2022-07-28T13:24:24.045Z,60.02
2022-07-28T13:29:26.161Z,58.67
2022-07-28T13:34:25.353Z,58.47
2022-07-28T13:39:27.490Z,59.09
2022-07-28T13:44:27.628Z,59.09
2022-07-28T13:49:27.859Z,59.32
2022-07-28T13:54:28.021Z,57.51
2022-07-28T13:59:27.189Z,57.09
2022-07-28T14:04:28.472Z,57.26
2022-07-28T14:09:29.650Z,56.08
2022-07-28T14:14:29.266Z,55.09
2022-07-28T14:19:38.616Z,56.15
2022-07-28T14:24:30.645Z,53.30
2022-07-28T14:29:32.765Z,53.22
2022-07-28T14:34:34.494Z,51.05
2022-07-28T14:39:31.773Z,52.31
2022-07-28T14:44:32.895Z,53.09
2022-07-28T14:49:34.045Z,51.92
2022-07-28T14:54:35.181Z,51.00
2022-07-28T14:59:36.361Z,52.19
2022-07-28T15:04:37.516Z,51.93
2022-07-28T15:09:43.432Z,47.61
2022-07-28T15:14:40.569Z,50.85
2022-07-28T15:19:40.719Z,52.14
2022-07-28T15:24:41.882Z,50.19
2022-07-28T15:29:43.550Z,48.45
2022-07-28T15:34:40.712Z,46.26
2022-07-28T15:39:45.040Z,46.41
2022-07-28T15:44:42.544Z,46.58
2022-07-28T15:49:43.696Z,48.79
2022-07-28T15:54:45.847Z,48.74
2022-07-28T15:59:50.100Z,47.71
2022-07-28T16:04:53.563Z,47.64
2022-07-28T16:09:46.937Z,48.11
2022-07-28T16:14:47.117Z,48.20
2022-07-28T16:19:50.045Z,49.50
2022-07-28T16:24:47.224Z,48.14
2022-07-28T16:29:49.387Z,50.36
2022-07-28T16:34:50.571Z,51.97
2022-07-28T16:39:49.676Z,53.25
2022-07-28T16:44:50.818Z,52.26
2022-07-28T16:49:51.992Z,53.25
2022-07-28T16:54:53.118Z,54.43
2022-07-28T16:59:55.276Z,55.35
2022-07-28T17:04:55.678Z,56.43
2022-07-28T17:09:56.201Z,56.90
2022-07-28T17:14:57.318Z,56.70
2022-07-28T17:19:56.441Z,56.67
2022-07-28T17:24:58.874Z,58.89
2022-07-28T17:29:58.024Z,60.43
2022-07-28T17:34:59.145Z,62.28
2022-07-28T17:40:00.270Z,61.69
2022-07-28T17:44:59.894Z,60.31
2022-07-28T17:50:02.110Z,60.70
2022-07-28T17:55:02.207Z,60.63
2022-07-28T18:00:01.832Z,62.60
2022-07-28T18:05:02.951Z,68.57
2022-07-28T18:10:05.083Z,65.23
2022-07-28T18:15:04.188Z,64.08
2022-07-28T18:20:06.361Z,63.42
2022-07-28T18:25:05.579Z,58.01
2022-07-28T18:30:06.719Z,58.67
2022-07-28T18:35:07.862Z,61.50
2022-07-28T18:40:10.044Z,74.89
2022-07-28T18:45:09.253Z,87.66
2022-07-28T18:50:27.843Z,91.77
2022-07-28T18:55:10.476Z,89.86
2022-07-28T19:00:11.616Z,96.39
2022-07-28T19:05:12.778Z,95.49
2022-07-28T19:10:13.939Z,96.55
2022-07-28T19:15:15.095Z,95.84
2022-07-28T19:20:17.279Z,94.38
2022-07-28T19:25:17.520Z,89.06
2022-07-28T19:30:16.172Z,88.85
2022-07-28T19:35:17.371Z,86.30
2022-07-28T19:40:18.684Z,89.06
2022-07-28T19:45:19.866Z,87.85
2022-07-28T19:50:21.028Z,86.60
2022-07-28T19:55:22.259Z,85.56
2022-07-28T20:00:21.879Z,82.60
2022-07-28T20:05:23.054Z,80.96
2022-07-28T20:10:28.257Z,79.22
2022-07-28T20:15:25.434Z,80.66
2022-07-28T20:20:27.584Z,79.39
2022-07-28T20:25:27.774Z,82.24
2022-07-28T20:30:26.973Z,84.09
2022-07-28T20:35:28.137Z,84.69
2022-07-28T20:40:29.245Z,85.46
2022-07-28T20:45:31.418Z,84.75
2022-07-28T20:50:31.555Z,82.03
2022-07-28T20:55:31.043Z,81.35
2022-07-28T21:00:33.161Z,80.44
2022-07-28T21:05:35.753Z,80.92
2022-07-28T21:10:33.329Z,80.12
2022-07-28T21:15:34.596Z,79.32
2022-07-28T21:20:35.904Z,80.02
2022-07-28T21:25:37.166Z,77.21
2022-07-28T21:30:38.326Z,81.10
2022-07-28T21:35:47.403Z,80.30
2022-07-28T21:40:42.578Z,80.80
2022-07-28T21:45:42.848Z,82.14
2022-07-28T21:50:42.104Z,81.94
2022-07-28T21:55:43.326Z,81.64
2022-07-28T22:00:46.671Z,82.84
2022-07-28T22:05:45.797Z,82.84
2022-07-28T22:10:47.029Z,84.05
2022-07-28T22:15:47.233Z,83.21
2022-07-28T22:20:48.368Z,80.72
2022-07-28T22:25:49.504Z,80.56
2022-07-28T22:30:49.763Z,81.52
2022-07-28T22:35:50.923Z,80.52
2022-07-28T22:40:52.273Z,80.62
2022-07-28T22:45:54.458Z,79.52
2022-07-28T22:50:54.645Z,77.37
2022-07-28T22:55:54.723Z,78.42
2022-07-28T23:00:54.890Z,78.61
2022-07-28T23:05:56.053Z,76.61
2022-07-28T23:10:56.165Z,77.01
2022-07-28T23:15:55.281Z,77.28
2022-07-28T23:20:56.404Z,76.57
2022-07-28T23:25:59.516Z,75.37
2022-07-28T23:30:59.681Z,76.37
2022-07-28T23:35:58.861Z,75.47
2022-07-28T23:41:00.030Z,75.87
2022-07-28T23:46:01.052Z,76.98
2022-07-28T23:51:02.185Z,76.47
2022-07-28T23:56:02.366Z,76.37
